sensor_id;sensor_type;location;lat;lon;timestamp;P1;durP1;ratioP1;P2;durP2;ratioP2
75342;SDS011;63936;51.006;13.764;2023-04-25T00:00:03;6;;;3;;
75342;SDS011;63936;51.006;13.764;2023-04-25T00:02:04;6;;;3;;
75342;SDS011;63936;51.006;13.764;2023-04-25T00:04:03;6;;;3;;
75342;SDS011;63936;51.006;13.764;2023-04-25T00:06:04;6;;;3;;
75342;SDS011;63936;51.006;13.764;2023-04-25T00:08:04;5;;;3;;
75342;SDS011;63936;51.006;13.764;2023-04-25T00:10:06;5;;;3;;
75342;SDS011;63936;51.006;13.764;2023-04-25T00:12:03;6;;;3;;
75342;SDS011;63936;51.006;13.764;2023-04-25T00:14:04;6;;;3;;
75342;SDS011;63936;51.006;13.764;2023-04-25T00:16:03;7;;;3;;
75342;SDS011;63936;51.006;13.764;2023-04-25T00:18:04;6;;;3;;
75342;SDS011;63936;51.006;13.764;2023-04-25T00:20:04;6;;;3;;
75342;SDS011;63936;51.006;13.764;2023-04-25T00:22:03;6;;;3;;
75342;SDS011;63936;51.006;13.764;2023-04-25T00:24:02;6;;;3;;
75342;SDS011;63936;51.006;13.764;2023-04-25T00:26:03;7;;;3;;
75342;SDS011;63936;51.006;13.764;2023-04-25T00:28:02;6;;;3;;
75342;SDS011;63936;51.006;13.764;2023-04-25T00:30:04;6;;;3;;
75342;SDS011;63936;51.006;13.764;2023-04-25T00:32:02;6;;;3;;
75342;SDS011;63936;51.006;13.764;2023-04-25T00:34:02;6;;;3;;
75342;SDS011;63936;51.006;13.764;2023-04-25T00:36:02;7;;;3;;
75342;SDS011;63936;51.006;13.764;2023-04-25T00:38:02;7;;;3;;
75342;SDS011;63936;51.006;13.764;2023-04-25T00:40:06;6;;;3;;
75342;SDS011;63936;51.006;13.764;2023-04-25T00:42:03;6;;;3;;
75342;SDS011;63936;51.006;13.764;2023-04-25T00:44:03;6;;;3;;
75342;SDS011;63936;51.006;13.764;2023-04-25T00:46:03;7;;;3;;
75342;SDS011;63936;51.006;13.764;2023-04-25T00:48:02;6;;;3;;
75342;SDS011;63936;51.006;13.764;2023-04-25T00:50:07;6;;;3;;
75342;SDS011;63936;51.006;13.764;2023-04-25T00:52:01;7;;;3;;
75342;SDS011;63936;51.006;13.764;2023-04-25T00:54:01;7;;;3;;
75342;SDS011;63936;51.006;13.764;2023-04-25T00:56:02;8;;;3;;
75342;SDS011;63936;51.006;13.764;2023-04-25T00:58:01;7;;;3;;
75342;SDS011;63936;51.006;13.764;2023-04-25T01:00:04;7;;;3;;
75342;SDS011;63936;51.006;13.764;2023-04-25T01:02:01;6;;;3;;
75342;SDS011;63936;51.006;13.764;2023-04-25T01:04:01;7;;;4;;
75342;SDS011;63936;51.006;13.764;2023-04-25T01:06:01;7;;;3;;
75342;SDS011;63936;51.006;13.764;2023-04-25T01:08:01;7;;;4;;
75342;SDS011;63936;51.006;13.764;2023-04-25T01:10:03;9;;;4;;
75342;SDS011;63936;51.006;13.764;2023-04-25T01:12:02;7;;;3;;
75342;SDS011;63936;51.006;13.764;2023-04-25T01:14:01;8;;;4;;
75342;SDS011;63936;51.006;13.764;2023-04-25T01:16:02;8;;;4;;
75342;SDS011;63936;51.006;13.764;2023-04-25T01:18:01;8;;;4;;
75342;SDS011;63936;51.006;13.764;2023-04-25T01:20:03;8;;;4;;
75342;SDS011;63936;51.006;13.764;2023-04-25T01:22:01;7;;;4;;
75342;SDS011;63936;51.006;13.764;2023-04-25T01:24:01;8;;;4;;
75342;SDS011;63936;51.006;13.764;2023-04-25T01:26:02;10;;;4;;
75342;SDS011;63936;51.006;13.764;2023-04-25T01:28:02;8;;;4;;
75342;SDS011;63936;51.006;13.764;2023-04-25T01:30:03;8;;;4;;
75342;SDS011;63936;51.006;13.764;2023-04-25T01:32:01;8;;;4;;
75342;SDS011;63936;51.006;13.764;2023-04-25T01:34:02;7;;;4;;
75342;SDS011;63936;51.006;13.764;2023-04-25T01:36:02;7;;;4;;
75342;SDS011;63936;51.006;13.764;2023-04-25T01:38:01;7;;;4;;
75342;SDS011;63936;51.006;13.764;2023-04-25T01:40:02;7;;;4;;
75342;SDS011;63936;51.006;13.764;2023-04-25T01:42:02;7;;;4;;
75342;SDS011;63936;51.006;13.764;2023-04-25T01:44:02;7;;;4;;
75342;SDS011;63936;51.006;13.764;2023-04-25T01:46:02;8;;;4;;
75342;SDS011;63936;51.006;13.764;2023-04-25T01:48:02;9;;;4;;
75342;SDS011;63936;51.006;13.764;2023-04-25T01:50:04;7;;;4;;
75342;SDS011;63936;51.006;13.764;2023-04-25T01:52:01;10;;;4;;
75342;SDS011;63936;51.006;13.764;2023-04-25T01:54:01;9;;;4;;
75342;SDS011;63936;51.006;13.764;2023-04-25T01:56:02;11;;;4;;
75342;SDS011;63936;51.006;13.764;2023-04-25T01:58:02;10;;;4;;
75342;SDS011;63936;51.006;13.764;2023-04-25T02:00:05;7;;;4;;
75342;SDS011;63936;51.006;13.764;2023-04-25T02:02:01;8;;;4;;
75342;SDS011;63936;51.006;13.764;2023-04-25T02:04:01;8;;;4;;
75342;SDS011;63936;51.006;13.764;2023-04-25T02:06:02;8;;;4;;
75342;SDS011;63936;51.006;13.764;2023-04-25T02:08:02;7;;;3;;
75342;SDS011;63936;51.006;13.764;2023-04-25T02:10:03;7;;;3;;
75342;SDS011;63936;51.006;13.764;2023-04-25T02:12:01;10;;;3;;
75342;SDS011;63936;51.006;13.764;2023-04-25T02:14:01;8;;;4;;
75342;SDS011;63936;51.006;13.764;2023-04-25T02:16:01;7;;;4;;
75342;SDS011;63936;51.006;13.764;2023-04-25T02:18:01;8;;;4;;
75342;SDS011;63936;51.006;13.764;2023-04-25T02:20:04;7;;;4;;
75342;SDS011;63936;51.006;13.764;2023-04-25T02:22:02;8;;;4;;
75342;SDS011;63936;51.006;13.764;2023-04-25T02:24:02;7;;;3;;
75342;SDS011;63936;51.006;13.764;2023-04-25T02:26:02;7;;;4;;
75342;SDS011;63936;51.006;13.764;2023-04-25T02:28:02;9;;;4;;
75342;SDS011;63936;51.006;13.764;2023-04-25T02:30:03;8;;;4;;
75342;SDS011;63936;51.006;13.764;2023-04-25T02:32:02;7;;;4;;
75342;SDS011;63936;51.006;13.764;2023-04-25T02:34:01;7;;;4;;
75342;SDS011;63936;51.006;13.764;2023-04-25T02:36:02;12;;;4;;
75342;SDS011;63936;51.006;13.764;2023-04-25T02:38:03;10;;;4;;
75342;SDS011;63936;51.006;13.764;2023-04-25T02:40:05;9;;;4;;
75342;SDS011;63936;51.006;13.764;2023-04-25T02:42:01;9;;;4;;
75342;SDS011;63936;51.006;13.764;2023-04-25T02:44:02;7;;;4;;
75342;SDS011;63936;51.006;13.764;2023-04-25T02:46:02;8;;;4;;
75342;SDS011;63936;51.006;13.764;2023-04-25T02:48:02;11;;;4;;
75342;SDS011;63936;51.006;13.764;2023-04-25T02:50:05;10;;;4;;
75342;SDS011;63936;51.006;13.764;2023-04-25T02:52:01;10;;;4;;
75342;SDS011;63936;51.006;13.764;2023-04-25T02:54:01;9;;;4;;
75342;SDS011;63936;51.006;13.764;2023-04-25T02:56:01;8;;;4;;
75342;SDS011;63936;51.006;13.764;2023-04-25T02:58:01;9;;;4;;
75342;SDS011;63936;51.006;13.764;2023-04-25T03:00:02;9;;;4;;
75342;SDS011;63936;51.006;13.764;2023-04-25T03:02:02;10;;;4;;
75342;SDS011;63936;51.006;13.764;2023-04-25T03:04:03;12;;;4;;
75342;SDS011;63936;51.006;13.764;2023-04-25T03:06:04;9;;;5;;
75342;SDS011;63936;51.006;13.764;2023-04-25T03:08:02;11;;;5;;
75342;SDS011;63936;51.006;13.764;2023-04-25T03:10:29;12;;;5;;
75342;SDS011;63936;51.006;13.764;2023-04-25T03:12:02;9;;;5;;
75342;SDS011;63936;51.006;13.764;2023-04-25T03:14:02;9;;;5;;
75342;SDS011;63936;51.006;13.764;2023-04-25T03:16:01;9;;;4;;
75342;SDS011;63936;51.006;13.764;2023-04-25T03:18:01;8;;;5;;
75342;SDS011;63936;51.006;13.764;2023-04-25T03:20:04;8;;;4;;
75342;SDS011;63936;51.006;13.764;2023-04-25T03:22:02;9;;;5;;
75342;SDS011;63936;51.006;13.764;2023-04-25T03:24:02;9;;;5;;
75342;SDS011;63936;51.006;13.764;2023-04-25T03:26:01;9;;;5;;
75342;SDS011;63936;51.006;13.764;2023-04-25T03:28:01;9;;;5;;
75342;SDS011;63936;51.006;13.764;2023-04-25T03:30:03;9;;;5;;
75342;SDS011;63936;51.006;13.764;2023-04-25T03:32:02;10;;;5;;
75342;SDS011;63936;51.006;13.764;2023-04-25T03:34:01;10;;;5;;
75342;SDS011;63936;51.006;13.764;2023-04-25T03:36:02;10;;;5;;
75342;SDS011;63936;51.006;13.764;2023-04-25T03:38:01;9;;;5;;
75342;SDS011;63936;51.006;13.764;2023-04-25T03:40:03;8;;;4;;
75342;SDS011;63936;51.006;13.764;2023-04-25T03:42:01;8;;;5;;
75342;SDS011;63936;51.006;13.764;2023-04-25T03:44:02;9;;;5;;
75342;SDS011;63936;51.006;13.764;2023-04-25T03:46:01;11;;;5;;
75342;SDS011;63936;51.006;13.764;2023-04-25T03:48:01;11;;;5;;
75342;SDS011;63936;51.006;13.764;2023-04-25T03:50:01;10;;;5;;
75342;SDS011;63936;51.006;13.764;2023-04-25T03:52:02;11;;;6;;
75342;SDS011;63936;51.006;13.764;2023-04-25T03:54:02;13;;;8;;
75342;SDS011;63936;51.006;13.764;2023-04-25T03:56:02;11;;;8;;
75342;SDS011;63936;51.006;13.764;2023-04-25T03:58:02;10;;;7;;
75342;SDS011;63936;51.006;13.764;2023-04-25T04:00:03;10;;;6;;
75342;SDS011;63936;51.006;13.764;2023-04-25T04:02:03;10;;;6;;
75342;SDS011;63936;51.006;13.764;2023-04-25T04:04:02;10;;;6;;
75342;SDS011;63936;51.006;13.764;2023-04-25T04:06:03;8;;;5;;
75342;SDS011;63936;51.006;13.764;2023-04-25T04:08:02;9;;;5;;
75342;SDS011;63936;51.006;13.764;2023-04-25T04:10:02;10;;;5;;
75342;SDS011;63936;51.006;13.764;2023-04-25T04:12:02;10;;;6;;
75342;SDS011;63936;51.006;13.764;2023-04-25T04:14:02;9;;;6;;
75342;SDS011;63936;51.006;13.764;2023-04-25T04:16:02;9;;;5;;
75342;SDS011;63936;51.006;13.764;2023-04-25T04:18:01;9;;;5;;
75342;SDS011;63936;51.006;13.764;2023-04-25T04:20:03;11;;;6;;
75342;SDS011;63936;51.006;13.764;2023-04-25T04:22:01;12;;;6;;
75342;SDS011;63936;51.006;13.764;2023-04-25T04:24:02;12;;;5;;
75342;SDS011;63936;51.006;13.764;2023-04-25T04:26:01;12;;;6;;
75342;SDS011;63936;51.006;13.764;2023-04-25T04:28:02;12;;;6;;
75342;SDS011;63936;51.006;13.764;2023-04-25T04:30:04;9;;;5;;
75342;SDS011;63936;51.006;13.764;2023-04-25T04:32:02;9;;;5;;
75342;SDS011;63936;51.006;13.764;2023-04-25T04:34:03;9;;;5;;
75342;SDS011;63936;51.006;13.764;2023-04-25T04:36:02;10;;;5;;
75342;SDS011;63936;51.006;13.764;2023-04-25T04:38:02;9;;;5;;
75342;SDS011;63936;51.006;13.764;2023-04-25T04:40:03;9;;;5;;
75342;SDS011;63936;51.006;13.764;2023-04-25T04:42:02;9;;;5;;
75342;SDS011;63936;51.006;13.764;2023-04-25T04:44:02;8;;;5;;
75342;SDS011;63936;51.006;13.764;2023-04-25T04:46:02;9;;;5;;
75342;SDS011;63936;51.006;13.764;2023-04-25T04:48:03;9;;;5;;
75342;SDS011;63936;51.006;13.764;2023-04-25T04:50:06;10;;;5;;
75342;SDS011;63936;51.006;13.764;2023-04-25T04:52:03;10;;;5;;
75342;SDS011;63936;51.006;13.764;2023-04-25T04:54:03;9;;;5;;
75342;SDS011;63936;51.006;13.764;2023-04-25T04:56:02;9;;;5;;
75342;SDS011;63936;51.006;13.764;2023-04-25T04:58:01;9;;;5;;
75342;SDS011;63936;51.006;13.764;2023-04-25T05:00:05;8;;;5;;
75342;SDS011;63936;51.006;13.764;2023-04-25T05:02:02;8;;;5;;
75342;SDS011;63936;51.006;13.764;2023-04-25T05:04:02;8;;;5;;
75342;SDS011;63936;51.006;13.764;2023-04-25T05:06:02;10;;;5;;
75342;SDS011;63936;51.006;13.764;2023-04-25T05:08:02;10;;;5;;
75342;SDS011;63936;51.006;13.764;2023-04-25T05:10:04;9;;;5;;
75342;SDS011;63936;51.006;13.764;2023-04-25T05:12:02;9;;;5;;
75342;SDS011;63936;51.006;13.764;2023-04-25T05:14:02;9;;;4;;
75342;SDS011;63936;51.006;13.764;2023-04-25T05:16:02;10;;;5;;
75342;SDS011;63936;51.006;13.764;2023-04-25T05:18:02;8;;;4;;
75342;SDS011;63936;51.006;13.764;2023-04-25T05:20:04;8;;;4;;
75342;SDS011;63936;51.006;13.764;2023-04-25T05:22:02;10;;;5;;
75342;SDS011;63936;51.006;13.764;2023-04-25T05:24:02;10;;;5;;
75342;SDS011;63936;51.006;13.764;2023-04-25T05:26:02;7;;;4;;
75342;SDS011;63936;51.006;13.764;2023-04-25T05:28:02;8;;;4;;
75342;SDS011;63936;51.006;13.764;2023-04-25T05:30:04;9;;;5;;
75342;SDS011;63936;51.006;13.764;2023-04-25T05:32:02;8;;;5;;
75342;SDS011;63936;51.006;13.764;2023-04-25T05:34:02;9;;;5;;
75342;SDS011;63936;51.006;13.764;2023-04-25T05:36:02;8;;;4;;
75342;SDS011;63936;51.006;13.764;2023-04-25T05:38:02;8;;;5;;
75342;SDS011;63936;51.006;13.764;2023-04-25T05:40:05;8;;;4;;
75342;SDS011;63936;51.006;13.764;2023-04-25T05:42:02;8;;;4;;
75342;SDS011;63936;51.006;13.764;2023-04-25T05:44:02;9;;;4;;
75342;SDS011;63936;51.006;13.764;2023-04-25T05:46:01;9;;;4;;
75342;SDS011;63936;51.006;13.764;2023-04-25T05:48:02;11;;;4;;
75342;SDS011;63936;51.006;13.764;2023-04-25T05:50:05;8;;;4;;
75342;SDS011;63936;51.006;13.764;2023-04-25T05:52:02;7;;;4;;
75342;SDS011;63936;51.006;13.764;2023-04-25T05:54:02;8;;;4;;
75342;SDS011;63936;51.006;13.764;2023-04-25T05:56:02;8;;;4;;
75342;SDS011;63936;51.006;13.764;2023-04-25T05:58:02;9;;;4;;
75342;SDS011;63936;51.006;13.764;2023-04-25T06:00:04;9;;;4;;
75342;SDS011;63936;51.006;13.764;2023-04-25T06:02:02;7;;;4;;
75342;SDS011;63936;51.006;13.764;2023-04-25T06:04:02;7;;;4;;
75342;SDS011;63936;51.006;13.764;2023-04-25T06:06:02;7;;;4;;
75342;SDS011;63936;51.006;13.764;2023-04-25T06:08:02;7;;;4;;
75342;SDS011;63936;51.006;13.764;2023-04-25T06:10:04;9;;;4;;
75342;SDS011;63936;51.006;13.764;2023-04-25T06:12:01;8;;;4;;
75342;SDS011;63936;51.006;13.764;2023-04-25T06:14:02;8;;;4;;
75342;SDS011;63936;51.006;13.764;2023-04-25T06:16:02;7;;;4;;
75342;SDS011;63936;51.006;13.764;2023-04-25T06:18:02;8;;;4;;
75342;SDS011;63936;51.006;13.764;2023-04-25T06:20:04;7;;;3;;
75342;SDS011;63936;51.006;13.764;2023-04-25T06:22:02;7;;;3;;
75342;SDS011;63936;51.006;13.764;2023-04-25T06:24:02;7;;;3;;
75342;SDS011;63936;51.006;13.764;2023-04-25T06:26:02;8;;;4;;
75342;SDS011;63936;51.006;13.764;2023-04-25T06:28:02;7;;;3;;
75342;SDS011;63936;51.006;13.764;2023-04-25T06:30:05;7;;;4;;
75342;SDS011;63936;51.006;13.764;2023-04-25T06:32:02;7;;;4;;
75342;SDS011;63936;51.006;13.764;2023-04-25T06:34:01;7;;;3;;
75342;SDS011;63936;51.006;13.764;2023-04-25T06:36:02;7;;;3;;
75342;SDS011;63936;51.006;13.764;2023-04-25T06:38:02;7;;;4;;
75342;SDS011;63936;51.006;13.764;2023-04-25T06:40:05;7;;;4;;
75342;SDS011;63936;51.006;13.764;2023-04-25T06:42:02;9;;;4;;
75342;SDS011;63936;51.006;13.764;2023-04-25T06:44:01;8;;;4;;
75342;SDS011;63936;51.006;13.764;2023-04-25T06:46:01;7;;;4;;
75342;SDS011;63936;51.006;13.764;2023-04-25T06:48:01;9;;;4;;
75342;SDS011;63936;51.006;13.764;2023-04-25T06:50:04;8;;;3;;
75342;SDS011;63936;51.006;13.764;2023-04-25T06:52:02;9;;;4;;
75342;SDS011;63936;51.006;13.764;2023-04-25T06:54:02;8;;;4;;
75342;SDS011;63936;51.006;13.764;2023-04-25T06:56:02;8;;;4;;
75342;SDS011;63936;51.006;13.764;2023-04-25T06:58:01;7;;;4;;
75342;SDS011;63936;51.006;13.764;2023-04-25T07:00:04;8;;;4;;
75342;SDS011;63936;51.006;13.764;2023-04-25T07:02:01;7;;;4;;
75342;SDS011;63936;51.006;13.764;2023-04-25T07:04:01;7;;;4;;
75342;SDS011;63936;51.006;13.764;2023-04-25T07:06:02;8;;;4;;
75342;SDS011;63936;51.006;13.764;2023-04-25T07:08:01;8;;;4;;
75342;SDS011;63936;51.006;13.764;2023-04-25T07:10:04;8;;;4;;
75342;SDS011;63936;51.006;13.764;2023-04-25T07:12:01;7;;;4;;
75342;SDS011;63936;51.006;13.764;2023-04-25T07:14:01;8;;;4;;
75342;SDS011;63936;51.006;13.764;2023-04-25T07:16:01;8;;;3;;
75342;SDS011;63936;51.006;13.764;2023-04-25T07:18:02;7;;;3;;
75342;SDS011;63936;51.006;13.764;2023-04-25T07:20:06;7;;;4;;
75342;SDS011;63936;51.006;13.764;2023-04-25T07:22:02;8;;;4;;
75342;SDS011;63936;51.006;13.764;2023-04-25T07:24:01;7;;;4;;
75342;SDS011;63936;51.006;13.764;2023-04-25T07:26:02;7;;;4;;
75342;SDS011;63936;51.006;13.764;2023-04-25T07:28:02;7;;;3;;
75342;SDS011;63936;51.006;13.764;2023-04-25T07:30:03;9;;;4;;
75342;SDS011;63936;51.006;13.764;2023-04-25T07:32:01;8;;;4;;
75342;SDS011;63936;51.006;13.764;2023-04-25T07:34:01;8;;;3;;
75342;SDS011;63936;51.006;13.764;2023-04-25T07:36:01;8;;;3;;
75342;SDS011;63936;51.006;13.764;2023-04-25T07:38:01;7;;;3;;
75342;SDS011;63936;51.006;13.764;2023-04-25T07:40:01;7;;;3;;
75342;SDS011;63936;51.006;13.764;2023-04-25T07:42:01;7;;;3;;
75342;SDS011;63936;51.006;13.764;2023-04-25T07:44:01;7;;;3;;
75342;SDS011;63936;51.006;13.764;2023-04-25T07:46:01;6;;;3;;
75342;SDS011;63936;51.006;13.764;2023-04-25T07:48:01;6;;;3;;
75342;SDS011;63936;51.006;13.764;2023-04-25T07:50:02;6;;;2;;
75342;SDS011;63936;51.006;13.764;2023-04-25T07:52:01;6;;;2;;
75342;SDS011;63936;51.006;13.764;2023-04-25T07:54:01;7;;;3;;
75342;SDS011;63936;51.006;13.764;2023-04-25T07:56:01;7;;;3;;
75342;SDS011;63936;51.006;13.764;2023-04-25T07:58:01;6;;;3;;
75342;SDS011;63936;51.006;13.764;2023-04-25T08:00:02;5;;;2;;
75342;SDS011;63936;51.006;13.764;2023-04-25T08:02:02;6;;;2;;
75342;SDS011;63936;51.006;13.764;2023-04-25T08:04:02;8;;;2;;
75342;SDS011;63936;51.006;13.764;2023-04-25T08:06:01;6;;;2;;
75342;SDS011;63936;51.006;13.764;2023-04-25T08:08:01;6;;;2;;
75342;SDS011;63936;51.006;13.764;2023-04-25T08:10:02;8;;;3;;
75342;SDS011;63936;51.006;13.764;2023-04-25T08:12:01;8;;;3;;
75342;SDS011;63936;51.006;13.764;2023-04-25T08:14:01;8;;;3;;
75342;SDS011;63936;51.006;13.764;2023-04-25T08:16:01;6;;;2;;
75342;SDS011;63936;51.006;13.764;2023-04-25T08:18:01;6;;;2;;
75342;SDS011;63936;51.006;13.764;2023-04-25T08:20:02;6;;;2;;
75342;SDS011;63936;51.006;13.764;2023-04-25T08:22:01;7;;;2;;
75342;SDS011;63936;51.006;13.764;2023-04-25T08:24:01;5;;;2;;
75342;SDS011;63936;51.006;13.764;2023-04-25T08:26:01;6;;;2;;
75342;SDS011;63936;51.006;13.764;2023-04-25T08:28:01;6;;;2;;
75342;SDS011;63936;51.006;13.764;2023-04-25T08:30:03;6;;;2;;
75342;SDS011;63936;51.006;13.764;2023-04-25T08:32:01;4;;;2;;
75342;SDS011;63936;51.006;13.764;2023-04-25T08:34:01;6;;;2;;
75342;SDS011;63936;51.006;13.764;2023-04-25T08:36:01;6;;;2;;
75342;SDS011;63936;51.006;13.764;2023-04-25T08:38:01;7;;;2;;
75342;SDS011;63936;51.006;13.764;2023-04-25T08:40:03;7;;;2;;
75342;SDS011;63936;51.006;13.764;2023-04-25T08:42:01;7;;;2;;
75342;SDS011;63936;51.006;13.764;2023-04-25T08:44:01;5;;;2;;
75342;SDS011;63936;51.006;13.764;2023-04-25T08:46:01;6;;;2;;
75342;SDS011;63936;51.006;13.764;2023-04-25T08:48:02;6;;;2;;
75342;SDS011;63936;51.006;13.764;2023-04-25T08:50:03;7;;;3;;
75342;SDS011;63936;51.006;13.764;2023-04-25T08:52:02;6;;;3;;
75342;SDS011;63936;51.006;13.764;2023-04-25T08:54:09;6;;;3;;
75342;SDS011;63936;51.006;13.764;2023-04-25T08:56:01;7;;;2;;
75342;SDS011;63936;51.006;13.764;2023-04-25T08:58:01;7;;;2;;
75342;SDS011;63936;51.006;13.764;2023-04-25T09:00:02;8;;;3;;
75342;SDS011;63936;51.006;13.764;2023-04-25T09:02:01;8;;;3;;
75342;SDS011;63936;51.006;13.764;2023-04-25T09:04:01;7;;;3;;
75342;SDS011;63936;51.006;13.764;2023-04-25T09:06:01;6;;;3;;
75342;SDS011;63936;51.006;13.764;2023-04-25T09:08:01;6;;;3;;
75342;SDS011;63936;51.006;13.764;2023-04-25T09:10:02;6;;;3;;
75342;SDS011;63936;51.006;13.764;2023-04-25T09:12:01;6;;;3;;
75342;SDS011;63936;51.006;13.764;2023-04-25T09:14:17;6;;;3;;
75342;SDS011;63936;51.006;13.764;2023-04-25T09:16:01;7;;;4;;
75342;SDS011;63936;51.006;13.764;2023-04-25T09:18:01;10;;;4;;
75342;SDS011;63936;51.006;13.764;2023-04-25T09:20:06;9;;;4;;
75342;SDS011;63936;51.006;13.764;2023-04-25T09:22:02;9;;;4;;
75342;SDS011;63936;51.006;13.764;2023-04-25T09:24:01;7;;;4;;
75342;SDS011;63936;51.006;13.764;2023-04-25T09:26:01;8;;;4;;
75342;SDS011;63936;51.006;13.764;2023-04-25T09:28:03;10;;;4;;
75342;SDS011;63936;51.006;13.764;2023-04-25T09:30:03;9;;;4;;
75342;SDS011;63936;51.006;13.764;2023-04-25T09:32:17;9;;;4;;
75342;SDS011;63936;51.006;13.764;2023-04-25T09:34:01;7;;;4;;
75342;SDS011;63936;51.006;13.764;2023-04-25T09:36:02;7;;;4;;
75342;SDS011;63936;51.006;13.764;2023-04-25T09:38:01;8;;;4;;
75342;SDS011;63936;51.006;13.764;2023-04-25T09:40:04;8;;;4;;
75342;SDS011;63936;51.006;13.764;2023-04-25T09:42:02;9;;;4;;
75342;SDS011;63936;51.006;13.764;2023-04-25T09:44:01;9;;;4;;
75342;SDS011;63936;51.006;13.764;2023-04-25T09:46:01;8;;;5;;
75342;SDS011;63936;51.006;13.764;2023-04-25T09:48:03;7;;;4;;
75342;SDS011;63936;51.006;13.764;2023-04-25T09:50:01;7;;;4;;
75342;SDS011;63936;51.006;13.764;2023-04-25T09:52:01;7;;;4;;
75342;SDS011;63936;51.006;13.764;2023-04-25T09:54:01;7;;;4;;
75342;SDS011;63936;51.006;13.764;2023-04-25T09:56:03;8;;;4;;
75342;SDS011;63936;51.006;13.764;2023-04-25T09:58:03;8;;;4;;
75342;SDS011;63936;51.006;13.764;2023-04-25T10:00:02;8;;;4;;
75342;SDS011;63936;51.006;13.764;2023-04-25T10:02:01;8;;;4;;
75342;SDS011;63936;51.006;13.764;2023-04-25T10:04:01;6;;;4;;
75342;SDS011;63936;51.006;13.764;2023-04-25T10:06:02;6;;;4;;
75342;SDS011;63936;51.006;13.764;2023-04-25T10:08:02;7;;;4;;
75342;SDS011;63936;51.006;13.764;2023-04-25T10:10:02;7;;;4;;
75342;SDS011;63936;51.006;13.764;2023-04-25T10:12:02;7;;;4;;
75342;SDS011;63936;51.006;13.764;2023-04-25T10:14:01;8;;;4;;
75342;SDS011;63936;51.006;13.764;2023-04-25T10:16:02;9;;;4;;
75342;SDS011;63936;51.006;13.764;2023-04-25T10:18:01;8;;;4;;
75342;SDS011;63936;51.006;13.764;2023-04-25T10:20:02;8;;;4;;
75342;SDS011;63936;51.006;13.764;2023-04-25T10:22:03;8;;;4;;
75342;SDS011;63936;51.006;13.764;2023-04-25T10:24:01;8;;;4;;
75342;SDS011;63936;51.006;13.764;2023-04-25T10:26:01;8;;;4;;
75342;SDS011;63936;51.006;13.764;2023-04-25T10:28:03;7;;;4;;
75342;SDS011;63936;51.006;13.764;2023-04-25T10:30:04;8;;;4;;
75342;SDS011;63936;51.006;13.764;2023-04-25T10:32:01;7;;;3;;
75342;SDS011;63936;51.006;13.764;2023-04-25T10:34:01;7;;;3;;
75342;SDS011;63936;51.006;13.764;2023-04-25T10:36:09;7;;;3;;
75342;SDS011;63936;51.006;13.764;2023-04-25T10:38:03;7;;;4;;
75342;SDS011;63936;51.006;13.764;2023-04-25T10:40:07;7;;;3;;
75342;SDS011;63936;51.006;13.764;2023-04-25T10:42:01;7;;;3;;
75342;SDS011;63936;51.006;13.764;2023-04-25T10:44:01;6;;;3;;
75342;SDS011;63936;51.006;13.764;2023-04-25T10:46:01;9;;;3;;
75342;SDS011;63936;51.006;13.764;2023-04-25T10:48:01;7;;;3;;
75342;SDS011;63936;51.006;13.764;2023-04-25T10:50:04;7;;;3;;
75342;SDS011;63936;51.006;13.764;2023-04-25T10:52:17;6;;;3;;
75342;SDS011;63936;51.006;13.764;2023-04-25T10:54:02;6;;;3;;
75342;SDS011;63936;51.006;13.764;2023-04-25T10:56:08;7;;;3;;
75342;SDS011;63936;51.006;13.764;2023-04-25T10:58:01;8;;;4;;
75342;SDS011;63936;51.006;13.764;2023-04-25T11:00:08;7;;;4;;
75342;SDS011;63936;51.006;13.764;2023-04-25T11:02:01;9;;;4;;
75342;SDS011;63936;51.006;13.764;2023-04-25T11:04:02;8;;;4;;
75342;SDS011;63936;51.006;13.764;2023-04-25T11:06:01;7;;;4;;
75342;SDS011;63936;51.006;13.764;2023-04-25T11:08:01;8;;;4;;
75342;SDS011;63936;51.006;13.764;2023-04-25T11:10:02;9;;;4;;
75342;SDS011;63936;51.006;13.764;2023-04-25T11:12:01;8;;;4;;
75342;SDS011;63936;51.006;13.764;2023-04-25T11:14:01;8;;;5;;
75342;SDS011;63936;51.006;13.764;2023-04-25T11:16:01;8;;;5;;
75342;SDS011;63936;51.006;13.764;2023-04-25T11:18:01;9;;;5;;
75342;SDS011;63936;51.006;13.764;2023-04-25T11:20:02;8;;;5;;
75342;SDS011;63936;51.006;13.764;2023-04-25T11:22:02;9;;;5;;
75342;SDS011;63936;51.006;13.764;2023-04-25T11:24:02;9;;;5;;
75342;SDS011;63936;51.006;13.764;2023-04-25T11:26:02;10;;;5;;
75342;SDS011;63936;51.006;13.764;2023-04-25T11:28:02;9;;;5;;
75342;SDS011;63936;51.006;13.764;2023-04-25T11:30:10;8;;;5;;
75342;SDS011;63936;51.006;13.764;2023-04-25T11:32:01;8;;;5;;
75342;SDS011;63936;51.006;13.764;2023-04-25T11:34:01;9;;;5;;
75342;SDS011;63936;51.006;13.764;2023-04-25T11:36:01;9;;;4;;
75342;SDS011;63936;51.006;13.764;2023-04-25T11:38:01;8;;;3;;
75342;SDS011;63936;51.006;13.764;2023-04-25T11:40:02;8;;;3;;
75342;SDS011;63936;51.006;13.764;2023-04-25T11:42:01;8;;;3;;
75342;SDS011;63936;51.006;13.764;2023-04-25T11:44:02;8;;;3;;
75342;SDS011;63936;51.006;13.764;2023-04-25T11:46:06;7;;;2;;
75342;SDS011;63936;51.006;13.764;2023-04-25T11:48:02;5;;;2;;
75342;SDS011;63936;51.006;13.764;2023-04-25T11:50:02;6;;;3;;
75342;SDS011;63936;51.006;13.764;2023-04-25T11:52:02;6;;;3;;
75342;SDS011;63936;51.006;13.764;2023-04-25T11:54:02;7;;;3;;
75342;SDS011;63936;51.006;13.764;2023-04-25T11:56:01;8;;;2;;
75342;SDS011;63936;51.006;13.764;2023-04-25T11:58:01;7;;;3;;
75342;SDS011;63936;51.006;13.764;2023-04-25T12:00:07;9;;;3;;
75342;SDS011;63936;51.006;13.764;2023-04-25T12:02:01;9;;;3;;
75342;SDS011;63936;51.006;13.764;2023-04-25T12:04:09;7;;;3;;
75342;SDS011;63936;51.006;13.764;2023-04-25T12:06:02;6;;;2;;
75342;SDS011;63936;51.006;13.764;2023-04-25T12:08:16;7;;;3;;
75342;SDS011;63936;51.006;13.764;2023-04-25T12:10:04;7;;;3;;
75342;SDS011;63936;51.006;13.764;2023-04-25T12:12:01;10;;;3;;
75342;SDS011;63936;51.006;13.764;2023-04-25T12:14:02;9;;;3;;
75342;SDS011;63936;51.006;13.764;2023-04-25T12:16:01;8;;;3;;
75342;SDS011;63936;51.006;13.764;2023-04-25T12:18:01;8;;;3;;
75342;SDS011;63936;51.006;13.764;2023-04-25T12:20:05;8;;;3;;
75342;SDS011;63936;51.006;13.764;2023-04-25T12:22:01;9;;;3;;
75342;SDS011;63936;51.006;13.764;2023-04-25T12:24:16;10;;;3;;
75342;SDS011;63936;51.006;13.764;2023-04-25T12:26:01;8;;;3;;
75342;SDS011;63936;51.006;13.764;2023-04-25T12:28:09;8;;;3;;
75342;SDS011;63936;51.006;13.764;2023-04-25T12:30:02;8;;;3;;
75342;SDS011;63936;51.006;13.764;2023-04-25T12:32:01;8;;;3;;
75342;SDS011;63936;51.006;13.764;2023-04-25T12:34:01;8;;;3;;
75342;SDS011;63936;51.006;13.764;2023-04-25T12:36:02;8;;;3;;
75342;SDS011;63936;51.006;13.764;2023-04-25T12:38:01;8;;;3;;
75342;SDS011;63936;51.006;13.764;2023-04-25T12:40:02;9;;;3;;
75342;SDS011;63936;51.006;13.764;2023-04-25T12:42:01;9;;;3;;
75342;SDS011;63936;51.006;13.764;2023-04-25T12:44:01;9;;;3;;
75342;SDS011;63936;51.006;13.764;2023-04-25T12:46:02;9;;;3;;
75342;SDS011;63936;51.006;13.764;2023-04-25T12:48:02;9;;;3;;
75342;SDS011;63936;51.006;13.764;2023-04-25T12:50:02;9;;;3;;
75342;SDS011;63936;51.006;13.764;2023-04-25T12:52:01;8;;;3;;
75342;SDS011;63936;51.006;13.764;2023-04-25T12:54:01;8;;;3;;
75342;SDS011;63936;51.006;13.764;2023-04-25T12:56:01;10;;;3;;
75342;SDS011;63936;51.006;13.764;2023-04-25T12:58:01;10;;;3;;
75342;SDS011;63936;51.006;13.764;2023-04-25T13:00:02;9;;;3;;